Time,TemperatureF,DewpointF,PressureIn,WindDirection,WindDirectionDegrees,WindSpeedMPH,WindSpeedGustMPH,Humidity,HourlyPrecipIn,Conditions,Clouds,dailyrainin,SoftwareType,DateUTC
2013-09-02 00:05:00,69.1,68.2,29.79,South,177,8.0,8.0,97,0.00,,,0.00,WUHU216DAVISVP2,2013-09-02 04:05:00,
2013-09-02 00:15:00,69.3,68.7,29.79,South,176,0.0,10.0,98,0.00,,,0.00,WUHU216DAVISVP2,2013-09-02 04:15:00,
2013-09-02 00:16:00,69.3,68.7,29.79,South,176,0.0,6.0,98,0.00,,,0.00,WUHU216DAVISVP2,2013-09-02 04:16:00,
2013-09-02 00:17:00,69.3,68.7,29.79,South,176,0.0,6.0,98,0.00,,,0.00,WUHU216DAVISVP2,2013-09-02 04:17:00,
2013-09-02 00:22:00,69.4,68.8,29.79,SW,217,0.0,6.0,98,0.00,,,0.00,WUHU216DAVISVP2,2013-09-02 04:22:00,
2013-09-02 00:27:00,69.4,68.8,29.79,SW,217,0.0,6.0,98,0.00,,,0.00,WUHU216DAVISVP2,2013-09-02 04:27:00,
2013-09-02 00:32:00,69.3,68.7,29.79,SW,217,0.0,0.0,98,0.00,,,0.00,WUHU216DAVISVP2,2013-09-02 04:32:00,
2013-09-02 00:37:00,69.2,68.6,29.79,SW,217,0.0,2.0,98,0.00,,,0.00,WUHU216DAVISVP2,2013-09-02 04:37:00,
2013-09-02 00:42:00,69.2,68.6,29.79,SW,217,0.0,2.0,98,0.00,,,0.00,WUHU216DAVISVP2,2013-09-02 04:42:00,
2013-09-02 00:47:00,69.2,68.6,29.79,SW,217,0.0,2.0,98,0.00,,,0.00,WUHU216DAVISVP2,2013-09-02 04:47:00,
2013-09-02 00:52:00,69.3,68.7,29.79,SW,217,0.0,2.0,98,0.00,,,0.00,WUHU216DAVISVP2,2013-09-02 04:52:00,
2013-09-02 00:57:00,69.4,68.8,29.79,SW,219,0.0,4.0,98,0.00,,,0.00,WUHU216DAVISVP2,2013-09-02 04:57:00,
2013-09-02 01:04:00,69.5,68.9,29.79,South,176,0.0,2.0,98,0.00,,,0.00,WUHU216DAVISVP2,2013-09-02 05:04:00,
2013-09-02 01:09:00,69.4,68.8,29.78,South,176,0.0,2.0,98,0.00,,,0.00,WUHU216DAVISVP2,2013-09-02 05:09:00,
2013-09-02 01:14:00,69.4,68.8,29.78,South,178,0.0,4.0,98,0.00,,,0.00,WUHU216DAVISVP2,2013-09-02 05:14:00,
2013-09-02 01:19:00,69.3,68.7,29.78,South,174,0.0,4.0,98,0.00,,,0.00,WUHU216DAVISVP2,2013-09-02 05:19:00,
2013-09-02 01:24:00,69.3,68.7,29.78,SSE,166,0.0,4.0,98,0.00,,,0.00,WUHU216DAVISVP2,2013-09-02 05:24:00,
2013-09-02 01:29:00,69.2,68.6,29.78,SSE,166,0.0,4.0,98,0.00,,,0.00,WUHU216DAVISVP2,2013-09-02 05:29:00,
2013-09-02 01:34:00,69.2,68.6,29.78,SSE,166,0.0,2.0,98,0.00,,,0.00,WUHU216DAVISVP2,2013-09-02 05:34:00,
2013-09-02 01:39:00,69.2,68.6,29.78,SSE,166,0.0,0.0,98,0.00,,,0.00,WUHU216DAVISVP2,2013-09-02 05:39:00,
2013-09-02 01:44:00,69.1,68.5,29.78,SSE,166,0.0,0.0,98,0.00,,,0.00,WUHU216DAVISVP2,2013-09-02 05:44:00,
2013-09-02 01:49:00,69.0,68.4,29.78,SSE,166,0.0,0.0,98,0.00,,,0.00,WUHU216DAVISVP2,2013-09-02 05:49:00,
2013-09-02 01:54:00,68.9,68.3,29.78,SSE,166,0.0,0.0,98,0.00,,,0.00,WUHU216DAVISVP2,2013-09-02 05:54:00,
2013-09-02 01:59:00,68.9,68.3,29.78,SSE,166,0.0,0.0,98,0.00,,,0.00,WUHU216DAVISVP2,2013-09-02 05:59:00,
2013-09-02 02:04:00,68.8,68.2,29.79,SSE,166,0.0,0.0,98,0.00,,,0.00,WUHU216DAVISVP2,2013-09-02 06:04:00,
2013-09-02 02:09:00,68.8,68.2,29.78,SSE,168,0.0,2.0,98,0.00,,,0.00,WUHU216DAVISVP2,2013-09-02 06:09:00,
2013-09-02 02:14:00,68.8,68.2,29.78,SSE,168,0.0,2.0,98,0.00,,,0.00,WUHU216DAVISVP2,2013-09-02 06:14:00,
2013-09-02 02:19:00,68.9,68.3,29.78,SSE,168,0.0,2.0,98,0.00,,,0.00,WUHU216DAVISVP2,2013-09-02 06:19:00,
2013-09-02 02:24:00,69.0,68.4,29.78,SSE,155,0.0,2.0,98,0.00,,,0.00,WUHU216DAVISVP2,2013-09-02 06:24:00,
2013-09-02 02:29:00,69.1,68.5,29.78,SSE,155,0.0,2.0,98,0.00,,,0.00,WUHU216DAVISVP2,2013-09-02 06:29:00,
2013-09-02 02:34:00,69.1,68.5,29.78,WSW,250,0.0,6.0,98,0.00,,,0.00,WUHU216DAVISVP2,2013-09-02 06:34:00,
2013-09-02 02:39:00,69.2,68.6,29.78,WSW,250,0.0,6.0,98,0.00,,,0.00,WUHU216DAVISVP2,2013-09-02 06:39:00,
2013-09-02 02:44:00,69.3,69.0,29.78,WSW,250,0.0,2.0,99,0.00,,,0.00,WUHU216DAVISVP2,2013-09-02 06:44:00,
2013-09-02 02:49:00,69.4,69.1,29.78,WSW,250,0.0,2.0,99,0.00,,,0.00,WUHU216DAVISVP2,2013-09-02 06:49:00,
2013-09-02 02:54:00,69.5,68.9,29.78,WSW,250,0.0,0.0,98,0.00,,,0.00,WUHU216DAVISVP2,2013-09-02 06:54:00,
2013-09-02 02:59:00,69.7,69.4,29.78,WSW,250,0.0,2.0,99,0.00,,,0.00,WUHU216DAVISVP2,2013-09-02 06:59:00,
2013-09-02 03:04:00,69.7,69.4,29.77,WSW,250,0.0,2.0,99,0.00,,,0.00,WUHU216DAVISVP2,2013-09-02 07:04:00,
2013-09-02 03:09:00,69.8,69.2,29.77,SW,221,0.0,4.0,98,0.00,,,0.00,WUHU216DAVISVP2,2013-09-02 07:09:00,
2013-09-02 03:14:00,69.8,69.5,29.77,SW,221,0.0,4.0,99,0.00,,,0.00,WUHU216DAVISVP2,2013-09-02 07:14:00,
2013-09-02 03:19:00,69.9,69.6,29.77,SW,221,0.0,2.0,99,0.00,,,0.00,WUHU216DAVISVP2,2013-09-02 07:19:00,
2013-09-02 03:24:00,69.9,69.6,29.77,SSW,211,0.0,4.0,99,0.00,,,0.00,WUHU216DAVISVP2,2013-09-02 07:24:00,
2013-09-02 03:29:00,69.9,69.6,29.77,SSW,211,0.0,4.0,99,0.00,,,0.00,WUHU216DAVISVP2,2013-09-02 07:29:00,
2013-09-02 03:34:00,69.9,69.6,29.76,SSE,163,0.0,6.0,99,0.00,,,0.00,WUHU216DAVISVP2,2013-09-02 07:34:00,
2013-09-02 03:39:00,69.9,69.6,29.76,South,180,0.0,6.0,99,0.00,,,0.00,WUHU216DAVISVP2,2013-09-02 07:39:00,
2013-09-02 03:44:00,69.9,69.6,29.76,West,277,0.0,6.0,99,0.00,,,0.00,WUHU216DAVISVP2,2013-09-02 07:44:00,
2013-09-02 03:49:00,69.8,69.2,29.76,South,189,0.0,4.0,98,0.00,,,0.00,WUHU216DAVISVP2,2013-09-02 07:49:00,
2013-09-02 03:54:00,69.7,69.1,29.76,South,189,0.0,2.0,98,0.00,,,0.00,WUHU216DAVISVP2,2013-09-02 07:54:00,
2013-09-02 03:59:00,69.5,68.9,29.75,South,189,0.0,2.0,98,0.00,,,0.00,WUHU216DAVISVP2,2013-09-02 07:59:00,
2013-09-02 04:04:00,69.3,68.7,29.75,South,188,0.0,4.0,98,0.00,,,0.00,WUHU216DAVISVP2,2013-09-02 08:04:00,
2013-09-02 04:09:00,69.2,68.6,29.75,South,187,0.0,4.0,98,0.00,,,0.00,WUHU216DAVISVP2,2013-09-02 08:09:00,
2013-09-02 04:14:00,69.1,68.5,29.76,South,188,0.0,4.0,98,0.00,,,0.00,WUHU216DAVISVP2,2013-09-02 08:14:00,
2013-09-02 04:19:00,69.1,68.5,29.76,SSW,194,0.0,2.0,98,0.00,,,0.00,WUHU216DAVISVP2,2013-09-02 08:19:00,
2013-09-02 04:24:00,69.0,68.4,29.75,SSW,194,0.0,2.0,98,0.00,,,0.00,WUHU216DAVISVP2,2013-09-02 08:24:00,
2013-09-02 04:29:00,68.8,68.2,29.75,SSW,194,0.0,0.0,98,0.00,,,0.00,WUHU216DAVISVP2,2013-09-02 08:29:00,
2013-09-02 04:34:00,68.8,68.2,29.76,SSW,194,0.0,0.0,98,0.00,,,0.00,WUHU216DAVISVP2,2013-09-02 08:34:00,
2013-09-02 04:39:00,68.7,68.1,29.76,SSW,194,0.0,2.0,98,0.00,,,0.00,WUHU216DAVISVP2,2013-09-02 08:39:00,
2013-09-02 04:44:00,68.6,68.0,29.76,SSW,194,0.0,2.0,98,0.00,,,0.00,WUHU216DAVISVP2,2013-09-02 08:44:00,
2013-09-02 04:49:00,68.5,67.9,29.76,SSW,195,0.0,0.0,98,0.00,,,0.00,WUHU216DAVISVP2,2013-09-02 08:49:00,
2013-09-02 04:54:00,68.5,67.9,29.76,SSW,197,0.0,2.0,98,0.00,,,0.00,WUHU216DAVISVP2,2013-09-02 08:54:00,
2013-09-02 04:59:00,68.5,67.9,29.77,SSW,197,0.0,2.0,98,0.00,,,0.00,WUHU216DAVISVP2,2013-09-02 08:59:00,
2013-09-02 05:04:00,68.4,67.8,29.76,SSW,197,0.0,0.0,98,0.00,,,0.00,WUHU216DAVISVP2,2013-09-02 09:04:00,
2013-09-02 05:09:00,68.4,67.8,29.76,SSW,197,0.0,2.0,98,0.00,,,0.00,WUHU216DAVISVP2,2013-09-02 09:09:00,
2013-09-02 05:14:00,68.5,67.9,29.76,SSW,197,0.0,2.0,98,0.00,,,0.00,WUHU216DAVISVP2,2013-09-02 09:14:00,
2013-09-02 05:19:00,68.5,67.9,29.76,SSW,197,0.0,2.0,98,0.00,,,0.00,WUHU216DAVISVP2,2013-09-02 09:19:00,
2013-09-02 05:24:00,68.4,67.8,29.76,SSW,197,0.0,2.0,98,0.00,,,0.00,WUHU216DAVISVP2,2013-09-02 09:24:00,
2013-09-02 05:29:00,68.3,67.7,29.76,SSW,197,0.0,2.0,98,0.00,,,0.00,WUHU216DAVISVP2,2013-09-02 09:29:00,
2013-09-02 05:34:00,68.2,67.6,29.76,SSW,197,0.0,0.0,98,0.00,,,0.00,WUHU216DAVISVP2,2013-09-02 09:34:00,
2013-09-02 05:39:00,68.1,67.5,29.76,SSW,197,0.0,0.0,98,0.00,,,0.00,WUHU216DAVISVP2,2013-09-02 09:39:00,
2013-09-02 05:44:00,68.0,67.4,29.76,SSW,197,0.0,0.0,98,0.00,,,0.00,WUHU216DAVISVP2,2013-09-02 09:44:00,
2013-09-02 05:49:00,68.0,67.4,29.76,SSW,197,2.0,2.0,98,0.00,,,0.00,WUHU216DAVISVP2,2013-09-02 09:49:00,
2013-09-02 05:54:00,68.0,67.4,29.76,SSW,193,0.0,4.0,98,0.00,,,0.00,WUHU216DAVISVP2,2013-09-02 09:54:00,
2013-09-02 05:59:00,68.2,67.9,29.76,South,175,2.0,4.0,99,0.00,,,0.00,WUHU216DAVISVP2,2013-09-02 09:59:00,
2013-09-02 06:04:00,68.3,68.0,29.77,WSW,250,0.0,6.0,99,0.00,,,0.00,WUHU216DAVISVP2,2013-09-02 10:04:00,
2013-09-02 06:09:00,68.4,68.1,29.77,South,175,0.0,6.0,99,0.00,,,0.00,WUHU216DAVISVP2,2013-09-02 10:09:00,
2013-09-02 06:14:00,68.4,68.1,29.77,NW,317,0.0,2.0,99,0.00,,,0.00,WUHU216DAVISVP2,2013-09-02 10:14:00,
2013-09-02 06:19:00,68.4,68.1,29.78,NW,308,0.0,2.0,99,0.00,,,0.00,WUHU216DAVISVP2,2013-09-02 10:19:00,
2013-09-02 06:24:00,68.4,68.1,29.78,WSW,255,2.0,4.0,99,0.00,,,0.00,WUHU216DAVISVP2,2013-09-02 10:24:00,
2013-09-02 06:29:00,68.4,68.1,29.78,SSE,153,0.0,4.0,99,0.00,,,0.00,WUHU216DAVISVP2,2013-09-02 10:29:00,
2013-09-02 06:34:00,68.5,68.2,29.78,SSE,157,0.0,4.0,99,0.00,,,0.00,WUHU216DAVISVP2,2013-09-02 10:34:00,
2013-09-02 06:39:00,68.5,68.2,29.78,SSW,197,0.0,4.0,99,0.00,,,0.00,WUHU216DAVISVP2,2013-09-02 10:39:00,
2013-09-02 06:44:00,68.5,68.2,29.78,South,173,2.0,6.0,99,0.00,,,0.00,WUHU216DAVISVP2,2013-09-02 10:44:00,
2013-09-02 06:49:00,68.6,68.3,29.78,South,171,0.0,6.0,99,0.00,,,0.00,WUHU216DAVISVP2,2013-09-02 10:49:00,
2013-09-02 06:54:00,68.6,68.3,29.78,South,172,0.0,4.0,99,0.00,,,0.00,WUHU216DAVISVP2,2013-09-02 10:54:00,
2013-09-02 06:59:00,68.6,68.3,29.79,SW,225,0.0,4.0,99,0.00,,,0.00,WUHU216DAVISVP2,2013-09-02 10:59:00,
2013-09-02 07:04:00,68.6,68.3,29.79,SW,225,0.0,2.0,99,0.00,,,0.00,WUHU216DAVISVP2,2013-09-02 11:04:00,
2013-09-02 07:09:00,68.7,68.4,29.79,SW,225,0.0,4.0,99,0.00,,,0.00,WUHU216DAVISVP2,2013-09-02 11:09:00,
2013-09-02 07:14:00,68.7,68.4,29.79,SW,215,2.0,4.0,99,0.00,,,0.00,WUHU216DAVISVP2,2013-09-02 11:14:00,
2013-09-02 07:19:00,68.8,68.5,29.79,SW,223,0.0,4.0,99,0.00,,,0.00,WUHU216DAVISVP2,2013-09-02 11:19:00,
2013-09-02 07:24:00,68.8,68.5,29.79,South,182,2.0,6.0,99,0.00,,,0.00,WUHU216DAVISVP2,2013-09-02 11:24:00,
2013-09-02 07:29:00,68.9,68.6,29.79,South,182,0.0,6.0,99,0.00,,,0.00,WUHU216DAVISVP2,2013-09-02 11:29:00,
2013-09-02 07:34:00,69.0,68.7,29.79,South,182,0.0,2.0,99,0.00,,,0.00,WUHU216DAVISVP2,2013-09-02 11:34:00,
2013-09-02 07:39:00,69.0,68.7,29.80,South,182,0.0,2.0,99,0.00,,,0.00,WUHU216DAVISVP2,2013-09-02 11:39:00,
2013-09-02 07:44:00,69.1,68.8,29.80,SSE,163,0.0,2.0,99,0.00,,,0.00,WUHU216DAVISVP2,2013-09-02 11:44:00,
2013-09-02 07:49:00,69.2,68.9,29.80,SSE,163,0.0,2.0,99,0.00,,,0.00,WUHU216DAVISVP2,2013-09-02 11:49:00,
2013-09-02 07:54:00,69.3,69.0,29.80,SSE,163,0.0,2.0,99,0.00,,,0.00,WUHU216DAVISVP2,2013-09-02 11:54:00,
2013-09-02 07:59:00,69.4,69.1,29.80,SSE,164,0.0,2.0,99,0.00,,,0.00,WUHU216DAVISVP2,2013-09-02 11:59:00,
2013-09-02 08:04:00,69.5,69.2,29.80,SSE,164,0.0,2.0,99,0.00,,,0.00,WUHU216DAVISVP2,2013-09-02 12:04:00,
2013-09-02 08:09:00,69.5,69.2,29.80,SSE,165,2.0,4.0,99,0.00,,,0.00,WUHU216DAVISVP2,2013-09-02 12:09:00,
2013-09-02 08:14:00,69.6,69.3,29.80,SSE,166,0.0,4.0,99,0.00,,,0.00,WUHU216DAVISVP2,2013-09-02 12:14:00,
2013-09-02 08:19:00,69.7,69.4,29.80,SSE,166,0.0,2.0,99,0.00,,,0.00,WUHU216DAVISVP2,2013-09-02 12:19:00,
2013-09-02 08:24:00,69.8,69.5,29.80,WSW,252,0.0,8.0,99,0.00,,,0.00,WUHU216DAVISVP2,2013-09-02 12:24:00,
2013-09-02 08:29:00,69.9,69.6,29.80,SE,132,2.0,8.0,99,0.00,,,0.00,WUHU216DAVISVP2,2013-09-02 12:29:00,
2013-09-02 08:34:00,70.1,69.8,29.80,SSE,163,0.0,6.0,99,0.00,,,0.00,WUHU216DAVISVP2,2013-09-02 12:34:00,
2013-09-02 08:39:00,70.3,70.0,29.80,SSE,163,0.0,4.0,99,0.00,,,0.00,WUHU216DAVISVP2,2013-09-02 12:39:00,
2013-09-02 08:44:00,70.6,70.3,29.79,SSE,163,0.0,2.0,99,0.00,,,0.00,WUHU216DAVISVP2,2013-09-02 12:44:00,
2013-09-02 08:49:00,70.8,70.5,29.79,WSW,254,0.0,4.0,99,0.00,,,0.00,WUHU216DAVISVP2,2013-09-02 12:49:00,
2013-09-02 08:54:00,70.8,70.5,29.79,West,265,0.0,6.0,99,0.00,,,0.00,WUHU216DAVISVP2,2013-09-02 12:54:00,
2013-09-02 08:59:00,70.8,70.5,29.79,WSW,250,0.0,6.0,99,0.00,,,0.00,WUHU216DAVISVP2,2013-09-02 12:59:00,
2013-09-02 09:04:00,70.9,70.6,29.79,WSW,250,0.0,4.0,99,0.00,,,0.00,WUHU216DAVISVP2,2013-09-02 13:04:00,
2013-09-02 09:09:00,71.2,70.9,29.79,SSW,196,6.0,6.0,99,0.00,,,0.00,WUHU216DAVISVP2,2013-09-02 13:09:00,
2013-09-02 09:14:00,71.4,71.1,29.79,SSE,154,0.0,6.0,99,0.00,,,0.00,WUHU216DAVISVP2,2013-09-02 13:14:00,
2013-09-02 09:19:00,71.4,71.1,29.79,WNW,290,0.0,6.0,99,0.00,,,0.00,WUHU216DAVISVP2,2013-09-02 13:19:00,
2013-09-02 09:24:00,71.5,71.2,29.79,SSW,205,0.0,6.0,99,0.00,,,0.00,WUHU216DAVISVP2,2013-09-02 13:24:00,
2013-09-02 09:29:00,71.5,70.9,29.80,SW,229,0.0,4.0,98,0.00,,,0.00,WUHU216DAVISVP2,2013-09-02 13:29:00,
2013-09-02 09:34:00,71.7,71.1,29.80,SW,229,0.0,4.0,98,0.00,,,0.00,WUHU216DAVISVP2,2013-09-02 13:34:00,
2013-09-02 09:39:00,71.9,71.3,29.79,SW,219,0.0,4.0,98,0.00,,,0.00,WUHU216DAVISVP2,2013-09-02 13:39:00,
2013-09-02 09:44:00,72.2,71.6,29.80,NW,314,0.0,6.0,98,0.00,,,0.00,WUHU216DAVISVP2,2013-09-02 13:44:00,
2013-09-02 09:49:00,72.2,71.0,29.80,WNW,298,0.0,6.0,96,0.00,,,0.00,WUHU216DAVISVP2,2013-09-02 13:49:00,
2013-09-02 09:54:00,72.4,70.9,29.80,WSW,244,0.0,4.0,95,0.00,,,0.00,WUHU216DAVISVP2,2013-09-02 13:54:00,
2013-09-02 09:59:00,72.9,71.7,29.80,WSW,244,2.0,4.0,96,0.00,,,0.00,WUHU216DAVISVP2,2013-09-02 13:59:00,
2013-09-02 10:04:00,73.4,71.2,29.80,WSW,244,2.0,8.0,93,0.00,,,0.00,WUHU216DAVISVP2,2013-09-02 14:04:00,
2013-09-02 10:09:00,73.6,70.8,29.80,West,262,0.0,8.0,91,0.00,,,0.00,WUHU216DAVISVP2,2013-09-02 14:09:00,
2013-09-02 10:14:00,73.9,71.4,29.80,SW,229,0.0,6.0,92,0.00,,,0.00,WUHU216DAVISVP2,2013-09-02 14:14:00,
2013-09-02 10:19:00,74.0,70.9,29.80,SW,219,0.0,10.0,90,0.00,,,0.00,WUHU216DAVISVP2,2013-09-02 14:19:00,
2013-09-02 10:24:00,74.1,71.0,29.80,West,272,2.0,10.0,90,0.00,,,0.00,WUHU216DAVISVP2,2013-09-02 14:24:00,
2013-09-02 10:29:00,74.0,70.9,29.80,West,267,2.0,4.0,90,0.00,,,0.00,WUHU216DAVISVP2,2013-09-02 14:29:00,
2013-09-02 10:34:00,73.9,70.4,29.81,SSW,213,0.0,6.0,89,0.00,,,0.00,WUHU216DAVISVP2,2013-09-02 14:34:00,
2013-09-02 10:39:00,74.0,70.2,29.81,SSW,194,0.0,6.0,88,0.00,,,0.00,WUHU216DAVISVP2,2013-09-02 14:39:00,
2013-09-02 10:44:00,74.0,70.2,29.80,SSW,194,2.0,4.0,88,0.00,,,0.00,WUHU216DAVISVP2,2013-09-02 14:44:00,
2013-09-02 10:49:00,74.0,70.2,29.80,WSW,251,0.0,4.0,88,0.00,,,0.00,WUHU216DAVISVP2,2013-09-02 14:49:00,
2013-09-02 10:55:00,74.0,70.2,29.81,NNW,344,0.0,4.0,88,0.00,,,0.00,WUHU216DAVISVP2,2013-09-02 14:55:00,
2013-09-02 10:59:00,74.0,70.2,29.81,NW,321,4.0,6.0,88,0.00,,,0.00,WUHU216DAVISVP2,2013-09-02 14:59:00,
2013-09-02 11:04:00,73.9,69.8,29.81,NNW,331,0.0,6.0,87,0.00,,,0.00,WUHU216DAVISVP2,2013-09-02 15:04:00,
2013-09-02 11:09:00,73.8,70.3,29.81,NNE,19,0.0,6.0,89,0.00,,,0.00,WUHU216DAVISVP2,2013-09-02 15:09:00,
2013-09-02 11:14:00,73.6,69.8,29.81,NE,34,0.0,6.0,88,0.00,,,0.00,WUHU216DAVISVP2,2013-09-02 15:14:00,
2013-09-02 11:19:00,73.7,70.3,29.81,SW,217,0.0,6.0,89,0.00,,,0.00,WUHU216DAVISVP2,2013-09-02 15:19:00,
2013-09-02 11:24:00,73.7,70.3,29.81,SW,215,0.0,6.0,89,0.00,,,0.00,WUHU216DAVISVP2,2013-09-02 15:24:00,
2013-09-02 11:29:00,73.8,70.0,29.81,WSW,244,2.0,8.0,88,0.00,,,0.00,WUHU216DAVISVP2,2013-09-02 15:29:00,
2013-09-02 11:34:00,73.9,70.1,29.81,NNW,328,0.0,8.0,88,0.00,,,0.00,WUHU216DAVISVP2,2013-09-02 15:34:00,
2013-09-02 11:39:00,74.0,70.2,29.81,NNW,337,0.0,8.0,88,0.00,,,0.00,WUHU216DAVISVP2,2013-09-02 15:39:00,
2013-09-02 11:44:00,74.3,70.8,29.81,West,281,0.0,6.0,89,0.00,,,0.00,WUHU216DAVISVP2,2013-09-02 15:44:00,
2013-09-02 11:49:00,74.7,70.6,29.81,West,281,0.0,2.0,87,0.00,,,0.00,WUHU216DAVISVP2,2013-09-02 15:49:00,
2013-09-02 11:54:00,74.9,70.8,29.81,West,267,0.0,6.0,87,0.00,,,0.00,WUHU216DAVISVP2,2013-09-02 15:54:00,
2013-09-02 12:00:00,75.1,70.7,29.81,ESE,105,2.0,6.0,86,0.00,,,0.00,WUHU216DAVISVP2,2013-09-02 16:00:00,
2013-09-02 12:05:00,75.1,70.3,29.81,North,360,0.0,6.0,85,0.00,,,0.00,WUHU216DAVISVP2,2013-09-02 16:05:00,
2013-09-02 12:10:00,75.3,70.8,29.81,NW,315,2.0,6.0,86,0.00,,,0.00,WUHU216DAVISVP2,2013-09-02 16:10:00,
2013-09-02 12:15:00,75.8,71.0,29.81,West,280,4.0,6.0,85,0.00,,,0.00,WUHU216DAVISVP2,2013-09-02 16:15:00,
2013-09-02 12:20:00,75.9,70.4,29.81,West,269,0.0,8.0,83,0.00,,,0.00,WUHU216DAVISVP2,2013-09-02 16:20:00,
2013-09-02 12:25:00,76.0,70.5,29.81,WNW,293,0.0,8.0,83,0.00,,,0.00,WUHU216DAVISVP2,2013-09-02 16:25:00,
2013-09-02 12:30:00,76.4,71.3,29.81,NW,315,4.0,6.0,84,0.00,,,0.00,WUHU216DAVISVP2,2013-09-02 16:30:00,
2013-09-02 12:35:00,76.6,71.5,29.81,NNE,23,0.0,4.0,84,0.00,,,0.00,WUHU216DAVISVP2,2013-09-02 16:35:00,
2013-09-02 12:40:00,76.6,71.5,29.81,WNW,299,6.0,8.0,84,0.00,,,0.00,WUHU216DAVISVP2,2013-09-02 16:40:00,
2013-09-02 12:45:00,76.4,71.3,29.81,North,9,2.0,8.0,84,0.00,,,0.00,WUHU216DAVISVP2,2013-09-02 16:45:00,
2013-09-02 12:50:00,76.0,70.9,29.81,WNW,286,6.0,10.0,84,0.00,,,0.00,WUHU216DAVISVP2,2013-09-02 16:50:00,
2013-09-02 12:55:00,75.6,70.8,29.81,WNW,286,2.0,10.0,85,0.00,,,0.00,WUHU216DAVISVP2,2013-09-02 16:55:00,
2013-09-02 13:00:00,75.4,70.6,29.81,NNW,329,0.0,10.0,85,0.00,,,0.00,WUHU216DAVISVP2,2013-09-02 17:00:00,
2013-09-02 13:05:00,75.3,70.8,29.81,NNW,337,4.0,8.0,86,0.00,,,0.00,WUHU216DAVISVP2,2013-09-02 17:05:00,
2013-09-02 13:10:00,74.8,70.7,29.81,NW,326,6.0,6.0,87,0.00,,,0.00,WUHU216DAVISVP2,2013-09-02 17:10:00,
2013-09-02 13:15:00,74.0,70.2,29.81,NNW,341,2.0,8.0,88,0.00,,,0.00,WUHU216DAVISVP2,2013-09-02 17:15:00,
2013-09-02 13:20:00,73.6,70.2,29.82,West,260,0.0,8.0,89,0.00,,,0.00,WUHU216DAVISVP2,2013-09-02 17:20:00,
2013-09-02 13:25:00,73.5,70.4,29.82,NNW,331,4.0,8.0,90,0.00,,,0.00,WUHU216DAVISVP2,2013-09-02 17:25:00,
2013-09-02 13:30:00,73.4,70.3,29.82,NNW,337,0.0,8.0,90,0.00,,,0.00,WUHU216DAVISVP2,2013-09-02 17:30:00,
2013-09-02 13:35:00,73.7,70.6,29.82,East,100,0.0,8.0,90,0.00,,,0.00,WUHU216DAVISVP2,2013-09-02 17:35:00,
2013-09-02 13:40:00,74.0,70.2,29.82,North,5,2.0,6.0,88,0.00,,,0.00,WUHU216DAVISVP2,2013-09-02 17:40:00,
2013-09-02 13:45:00,74.3,70.2,29.82,WNW,286,2.0,6.0,87,0.00,,,0.00,WUHU216DAVISVP2,2013-09-02 17:45:00,
2013-09-02 13:50:00,74.3,70.2,29.82,NNW,342,0.0,6.0,87,0.00,,,0.00,WUHU216DAVISVP2,2013-09-02 17:50:00,
2013-09-02 13:55:00,74.1,70.3,29.82,WNW,288,4.0,6.0,88,0.00,,,0.00,WUHU216DAVISVP2,2013-09-02 17:55:00,
2013-09-02 14:00:00,73.5,69.4,29.82,NNW,336,2.0,6.0,87,0.00,,,0.00,WUHU216DAVISVP2,2013-09-02 18:00:00,
2013-09-02 14:05:00,73.1,69.0,29.82,NE,36,0.0,10.0,87,0.00,,,0.00,WUHU216DAVISVP2,2013-09-02 18:05:00,
2013-09-02 14:10:00,73.0,68.6,29.82,NE,36,4.0,10.0,86,0.00,,,0.00,WUHU216DAVISVP2,2013-09-02 18:10:00,
2013-09-02 14:15:00,73.1,68.7,29.82,East,82,2.0,6.0,86,0.00,,,0.00,WUHU216DAVISVP2,2013-09-02 18:15:00,
2013-09-02 14:20:00,73.0,68.6,29.82,NE,44,0.0,10.0,86,0.00,,,0.00,WUHU216DAVISVP2,2013-09-02 18:20:00,
2013-09-02 14:25:00,72.9,68.5,29.82,NE,49,0.0,10.0,86,0.00,,,0.00,WUHU216DAVISVP2,2013-09-02 18:25:00,
2013-09-02 14:30:00,72.8,69.0,29.82,West,263,2.0,6.0,88,0.00,,,0.00,WUHU216DAVISVP2,2013-09-02 18:30:00,
2013-09-02 14:35:00,72.9,69.1,29.82,SW,236,0.0,6.0,88,0.00,,,0.00,WUHU216DAVISVP2,2013-09-02 18:35:00,
2013-09-02 14:40:00,72.7,68.9,29.82,WSW,237,0.0,4.0,88,0.00,,,0.00,WUHU216DAVISVP2,2013-09-02 18:40:00,
2013-09-02 14:45:00,72.4,68.3,29.82,WNW,295,0.0,6.0,87,0.00,,,0.00,WUHU216DAVISVP2,2013-09-02 18:45:00,
2013-09-02 14:50:00,72.2,68.4,29.82,ENE,62,0.0,8.0,88,0.00,,,0.00,WUHU216DAVISVP2,2013-09-02 18:50:00,
2013-09-02 14:55:00,72.4,69.0,29.82,NNW,341,0.0,8.0,89,0.00,,,0.00,WUHU216DAVISVP2,2013-09-02 18:55:00,
2013-09-02 15:00:00,72.7,68.9,29.82,ENE,59,0.0,6.0,88,0.00,,,0.00,WUHU216DAVISVP2,2013-09-02 19:00:00,
2013-09-02 15:05:00,72.7,68.6,29.82,North,5,0.0,6.0,87,0.00,,,0.00,WUHU216DAVISVP2,2013-09-02 19:05:00,
2013-09-02 15:10:00,72.5,68.4,29.82,SE,133,0.0,10.0,87,0.00,,,0.00,WUHU216DAVISVP2,2013-09-02 19:10:00,
2013-09-02 15:15:00,72.4,68.3,29.82,ESE,123,0.0,10.0,87,0.00,,,0.00,WUHU216DAVISVP2,2013-09-02 19:15:00,
2013-09-02 15:20:00,72.2,68.1,29.82,ESE,117,0.0,2.0,87,0.00,,,0.00,WUHU216DAVISVP2,2013-09-02 19:20:00,
2013-09-02 15:25:00,71.9,67.8,29.82,WSW,237,0.0,4.0,87,0.00,,,0.00,WUHU216DAVISVP2,2013-09-02 19:25:00,
2013-09-02 15:30:00,71.8,67.7,29.82,NE,55,0.0,6.0,87,0.00,,,0.00,WUHU216DAVISVP2,2013-09-02 19:30:00,
2013-09-02 15:35:00,71.6,67.5,29.82,NW,317,0.0,6.0,87,0.00,,,0.00,WUHU216DAVISVP2,2013-09-02 19:35:00,
2013-09-02 15:40:00,71.4,67.3,29.82,SW,224,0.0,8.0,87,0.00,,,0.00,WUHU216DAVISVP2,2013-09-02 19:40:00,
2013-09-02 15:45:00,71.5,67.4,29.82,NE,38,2.0,8.0,87,0.00,,,0.00,WUHU216DAVISVP2,2013-09-02 19:45:00,
2013-09-02 15:50:00,71.9,67.8,29.82,North,350,0.0,6.0,87,0.00,,,0.00,WUHU216DAVISVP2,2013-09-02 19:50:00,
2013-09-02 15:55:00,72.4,68.0,29.82,North,355,2.0,4.0,86,0.00,,,0.00,WUHU216DAVISVP2,2013-09-02 19:55:00,
2013-09-02 16:00:00,73.2,68.1,29.81,West,277,0.0,10.0,84,0.00,,,0.00,WUHU216DAVISVP2,2013-09-02 20:00:00,
2013-09-02 16:05:00,73.5,67.7,29.81,WNW,293,6.0,10.0,82,0.00,,,0.00,WUHU216DAVISVP2,2013-09-02 20:05:00,
2013-09-02 16:10:00,73.1,67.0,29.81,SW,236,2.0,8.0,81,0.00,,,0.00,WUHU216DAVISVP2,2013-09-02 20:10:00,
2013-09-02 16:15:00,73.0,67.2,29.81,NNE,18,0.0,8.0,82,0.00,,,0.00,WUHU216DAVISVP2,2013-09-02 20:15:00,
2013-09-02 16:20:00,72.7,66.6,29.82,NNE,17,6.0,8.0,81,0.00,,,0.00,WUHU216DAVISVP2,2013-09-02 20:20:00,
2013-09-02 16:25:00,72.5,66.4,29.81,WNW,296,4.0,8.0,81,0.00,,,0.00,WUHU216DAVISVP2,2013-09-02 20:25:00,
2013-09-02 16:30:00,72.4,66.7,29.81,NW,314,0.0,10.0,82,0.00,,,0.00,WUHU216DAVISVP2,2013-09-02 20:30:00,
2013-09-02 16:35:00,72.4,66.7,29.82,NW,311,2.0,10.0,82,0.00,,,0.00,WUHU216DAVISVP2,2013-09-02 20:35:00,
2013-09-02 16:40:00,72.4,66.7,29.82,NNW,336,4.0,10.0,82,0.00,,,0.00,WUHU216DAVISVP2,2013-09-02 20:40:00,
2013-09-02 16:45:00,72.4,66.3,29.81,WNW,301,4.0,10.0,81,0.00,,,0.00,WUHU216DAVISVP2,2013-09-02 20:45:00,
2013-09-02 16:50:00,72.6,66.9,29.82,NE,49,0.0,8.0,82,0.00,,,0.00,WUHU216DAVISVP2,2013-09-02 20:50:00,
2013-09-02 16:55:00,72.9,67.1,29.82,NNE,24,4.0,6.0,82,0.00,,,0.00,WUHU216DAVISVP2,2013-09-02 20:55:00,
2013-09-02 17:00:00,72.7,66.6,29.82,NNE,31,4.0,10.0,81,0.00,,,0.00,WUHU216DAVISVP2,2013-09-02 21:00:00,
2013-09-02 17:05:00,72.7,66.6,29.82,SW,223,2.0,10.0,81,0.00,,,0.00,WUHU216DAVISVP2,2013-09-02 21:05:00,
2013-09-02 17:10:00,72.5,66.4,29.82,NW,309,2.0,10.0,81,0.00,,,0.00,WUHU216DAVISVP2,2013-09-02 21:10:00,
2013-09-02 17:15:00,72.3,66.2,29.82,West,274,0.0,10.0,81,0.00,,,0.00,WUHU216DAVISVP2,2013-09-02 21:15:00,
2013-09-02 17:20:00,72.0,65.6,29.82,NW,314,0.0,6.0,80,0.00,,,0.00,WUHU216DAVISVP2,2013-09-02 21:20:00,
2013-09-02 17:25:00,71.8,64.3,29.82,NW,306,2.0,8.0,77,0.00,,,0.00,WUHU216DAVISVP2,2013-09-02 21:25:00,
2013-09-02 17:30:00,72.0,64.5,29.82,NW,306,0.0,8.0,77,0.00,,,0.00,WUHU216DAVISVP2,2013-09-02 21:30:00,
2013-09-02 17:35:00,72.0,64.5,29.82,NW,305,2.0,4.0,77,0.00,,,0.00,WUHU216DAVISVP2,2013-09-02 21:35:00,
2013-09-02 17:40:00,72.0,64.2,29.82,WNW,302,6.0,8.0,76,0.00,,,0.00,WUHU216DAVISVP2,2013-09-02 21:40:00,
2013-09-02 17:45:00,72.4,64.9,29.82,ENE,57,0.0,8.0,77,0.00,,,0.00,WUHU216DAVISVP2,2013-09-02 21:45:00,
2013-09-02 17:50:00,73.1,64.5,29.82,ENE,58,0.0,6.0,74,0.00,,,0.00,WUHU216DAVISVP2,2013-09-02 21:50:00,
2013-09-02 17:55:00,73.4,64.8,29.82,NW,321,0.0,6.0,74,0.00,,,0.00,WUHU216DAVISVP2,2013-09-02 21:55:00,
2013-09-02 18:00:00,73.2,64.6,29.82,NW,321,0.0,6.0,74,0.00,,,0.00,WUHU216DAVISVP2,2013-09-02 22:00:00,
2013-09-02 18:05:00,72.9,65.0,29.82,ENE,60,2.0,4.0,76,0.00,,,0.00,WUHU216DAVISVP2,2013-09-02 22:05:00,
2013-09-02 18:10:00,72.7,64.8,29.82,NE,53,4.0,4.0,76,0.00,,,0.00,WUHU216DAVISVP2,2013-09-02 22:10:00,
2013-09-02 18:15:00,72.6,64.7,29.83,WSW,248,0.0,4.0,76,0.00,,,0.00,WUHU216DAVISVP2,2013-09-02 22:15:00,
2013-09-02 18:20:00,72.4,63.8,29.83,WNW,292,0.0,6.0,74,0.00,,,0.00,WUHU216DAVISVP2,2013-09-02 22:20:00,
2013-09-02 18:25:00,72.1,63.9,29.84,WNW,292,0.0,6.0,75,0.00,,,0.00,WUHU216DAVISVP2,2013-09-02 22:25:00,
2013-09-02 18:30:00,72.0,64.2,29.84,WNW,297,0.0,4.0,76,0.00,,,0.00,WUHU216DAVISVP2,2013-09-02 22:30:00,
2013-09-02 18:35:00,71.9,64.1,29.84,NNE,28,0.0,4.0,76,0.00,,,0.00,WUHU216DAVISVP2,2013-09-02 22:35:00,
2013-09-02 18:40:00,71.7,64.2,29.84,NE,41,0.0,4.0,77,0.00,,,0.00,WUHU216DAVISVP2,2013-09-02 22:40:00,
2013-09-02 18:45:00,71.6,63.0,29.84,NNW,348,0.0,6.0,74,0.00,,,0.00,WUHU216DAVISVP2,2013-09-02 22:45:00,
2013-09-02 18:50:00,71.6,63.8,29.84,ENE,68,0.0,6.0,76,0.00,,,0.00,WUHU216DAVISVP2,2013-09-02 22:50:00,
2013-09-02 18:55:00,71.7,63.5,29.84,ENE,68,0.0,4.0,75,0.00,,,0.00,WUHU216DAVISVP2,2013-09-02 22:55:00,
2013-09-02 19:00:00,71.6,63.4,29.84,NNW,337,0.0,4.0,75,0.00,,,0.00,WUHU216DAVISVP2,2013-09-02 23:00:00,
2013-09-02 19:05:00,71.5,63.3,29.84,NNW,337,0.0,4.0,75,0.00,,,0.00,WUHU216DAVISVP2,2013-09-02 23:05:00,
2013-09-02 19:10:00,71.4,63.6,29.84,NNW,331,0.0,4.0,76,0.00,,,0.00,WUHU216DAVISVP2,2013-09-02 23:10:00,
2013-09-02 19:15:00,71.3,63.5,29.84,NE,35,0.0,10.0,76,0.00,,,0.00,WUHU216DAVISVP2,2013-09-02 23:15:00,
2013-09-02 19:20:00,71.1,63.3,29.84,NNE,28,0.0,10.0,76,0.00,,,0.00,WUHU216DAVISVP2,2013-09-02 23:20:00,
2013-09-02 19:25:00,70.9,63.4,29.84,NNE,28,0.0,2.0,77,0.00,,,0.00,WUHU216DAVISVP2,2013-09-02 23:25:00,
2013-09-02 19:30:00,70.6,63.2,29.84,NNE,28,0.0,2.0,77,0.00,,,0.00,WUHU216DAVISVP2,2013-09-02 23:30:00,
2013-09-02 19:35:00,70.3,63.6,29.84,NNE,28,0.0,2.0,79,0.00,,,0.00,WUHU216DAVISVP2,2013-09-02 23:35:00,
2013-09-02 19:40:00,70.0,64.0,29.84,NNE,28,0.0,0.0,81,0.00,,,0.00,WUHU216DAVISVP2,2013-09-02 23:40:00,
2013-09-02 19:45:00,69.5,63.5,29.84,NNE,28,0.0,0.0,81,0.00,,,0.00,WUHU216DAVISVP2,2013-09-02 23:45:00,
2013-09-02 19:50:00,69.0,63.0,29.84,NNE,28,0.0,0.0,81,0.00,,,0.00,WUHU216DAVISVP2,2013-09-02 23:50:00,
2013-09-02 19:55:00,68.6,62.6,29.84,NNE,28,0.0,0.0,81,0.00,,,0.00,WUHU216DAVISVP2,2013-09-02 23:55:00,
2013-09-02 20:00:00,68.2,62.5,29.84,NNE,28,0.0,0.0,82,0.00,,,0.00,WUHU216DAVISVP2,2013-09-03 00:00:00,
2013-09-02 20:05:00,67.9,62.9,29.84,NNE,28,0.0,0.0,84,0.00,,,0.00,WUHU216DAVISVP2,2013-09-03 00:05:00,
2013-09-02 20:10:00,67.5,62.9,29.84,NNE,28,0.0,0.0,85,0.00,,,0.00,WUHU216DAVISVP2,2013-09-03 00:10:00,
2013-09-02 20:15:00,67.1,62.8,29.84,NNE,28,0.0,0.0,86,0.00,,,0.00,WUHU216DAVISVP2,2013-09-03 00:15:00,
2013-09-02 20:20:00,66.8,62.8,29.84,NNE,28,0.0,0.0,87,0.00,,,0.00,WUHU216DAVISVP2,2013-09-03 00:20:00,
2013-09-02 20:25:00,66.6,62.6,29.84,NNE,28,0.0,0.0,87,0.00,,,0.00,WUHU216DAVISVP2,2013-09-03 00:25:00,
2013-09-02 20:30:00,66.3,62.3,29.83,NNE,28,0.0,0.0,87,0.00,,,0.00,WUHU216DAVISVP2,2013-09-03 00:30:00,
2013-09-02 20:35:00,66.0,62.3,29.84,NNE,28,0.0,0.0,88,0.00,,,0.00,WUHU216DAVISVP2,2013-09-03 00:35:00,
2013-09-02 20:40:00,65.8,62.1,29.84,NNE,28,0.0,0.0,88,0.00,,,0.00,WUHU216DAVISVP2,2013-09-03 00:40:00,
2013-09-02 20:45:00,65.6,62.3,29.84,NNE,28,0.0,0.0,89,0.00,,,0.00,WUHU216DAVISVP2,2013-09-03 00:45:00,
2013-09-02 20:50:00,65.4,62.1,29.84,NNE,28,0.0,0.0,89,0.00,,,0.00,WUHU216DAVISVP2,2013-09-03 00:50:00,
2013-09-02 20:55:00,65.3,62.3,29.84,NNE,28,0.0,0.0,90,0.00,,,0.00,WUHU216DAVISVP2,2013-09-03 00:55:00,
2013-09-02 21:00:00,65.1,62.1,29.84,NNE,28,0.0,0.0,90,0.00,,,0.00,WUHU216DAVISVP2,2013-09-03 01:00:00,
2013-09-02 21:05:00,65.0,62.3,29.84,NNE,28,0.0,0.0,91,0.00,,,0.00,WUHU216DAVISVP2,2013-09-03 01:05:00,
2013-09-02 21:10:00,64.9,62.2,29.84,NNE,28,0.0,0.0,91,0.00,,,0.00,WUHU216DAVISVP2,2013-09-03 01:10:00,
2013-09-02 21:15:00,64.8,62.1,29.84,NNE,28,0.0,0.0,91,0.00,,,0.00,WUHU216DAVISVP2,2013-09-03 01:15:00,
2013-09-02 21:20:00,64.7,62.0,29.84,NNE,28,0.0,0.0,91,0.00,,,0.00,WUHU216DAVISVP2,2013-09-03 01:20:00,
2013-09-02 21:25:00,64.6,61.9,29.84,NNE,28,0.0,0.0,91,0.00,,,0.00,WUHU216DAVISVP2,2013-09-03 01:25:00,
2013-09-02 21:30:00,64.5,61.8,29.84,NNE,28,0.0,0.0,91,0.00,,,0.00,WUHU216DAVISVP2,2013-09-03 01:30:00,
2013-09-02 21:35:00,64.4,62.0,29.85,NNE,28,0.0,0.0,92,0.00,,,0.00,WUHU216DAVISVP2,2013-09-03 01:35:00,
2013-09-02 21:40:00,64.3,61.9,29.85,NNE,28,0.0,0.0,92,0.00,,,0.00,WUHU216DAVISVP2,2013-09-03 01:40:00,
2013-09-02 21:45:00,64.3,61.9,29.85,NNE,28,0.0,0.0,92,0.00,,,0.00,WUHU216DAVISVP2,2013-09-03 01:45:00,
2013-09-02 21:50:00,64.4,62.3,29.85,NNE,28,0.0,0.0,93,0.00,,,0.00,WUHU216DAVISVP2,2013-09-03 01:50:00,
2013-09-02 21:55:00,64.6,62.5,29.85,NNE,28,0.0,4.0,93,0.00,,,0.00,WUHU216DAVISVP2,2013-09-03 01:55:00,
2013-09-02 22:00:00,64.9,62.5,29.86,NNE,31,0.0,4.0,92,0.00,,,0.00,WUHU216DAVISVP2,2013-09-03 02:00:00,
2013-09-02 22:05:00,65.1,62.7,29.86,NNE,31,0.0,2.0,92,0.00,,,0.00,WUHU216DAVISVP2,2013-09-03 02:05:00,
2013-09-02 22:10:00,65.3,62.6,29.85,NE,34,0.0,4.0,91,0.00,,,0.00,WUHU216DAVISVP2,2013-09-03 02:10:00,
2013-09-02 22:15:00,65.6,62.6,29.86,NE,34,0.0,4.0,90,0.00,,,0.00,WUHU216DAVISVP2,2013-09-03 02:15:00,
2013-09-02 22:20:00,65.9,62.2,29.86,ENE,73,0.0,4.0,88,0.00,,,0.00,WUHU216DAVISVP2,2013-09-03 02:20:00,
2013-09-02 22:25:00,66.2,62.2,29.86,SE,142,0.0,4.0,87,0.00,,,0.00,WUHU216DAVISVP2,2013-09-03 02:25:00,
2013-09-02 22:30:00,66.5,61.9,29.86,NE,52,0.0,4.0,85,0.00,,,0.00,WUHU216DAVISVP2,2013-09-03 02:30:00,
2013-09-02 22:35:00,66.8,61.8,29.86,NW,311,0.0,4.0,84,0.00,,,0.00,WUHU216DAVISVP2,2013-09-03 02:35:00,
2013-09-02 22:40:00,66.9,61.6,29.86,WSW,256,0.0,6.0,83,0.00,,,0.00,WUHU216DAVISVP2,2013-09-03 02:40:00,
2013-09-02 22:45:00,67.1,61.8,29.86,WSW,256,0.0,6.0,83,0.00,,,0.00,WUHU216DAVISVP2,2013-09-03 02:45:00,
2013-09-02 22:50:00,67.1,61.5,29.86,NE,43,0.0,6.0,82,0.00,,,0.00,WUHU216DAVISVP2,2013-09-03 02:50:00,
2013-09-02 22:55:00,67.1,61.5,29.86,NE,43,0.0,6.0,82,0.00,,,0.00,WUHU216DAVISVP2,2013-09-03 02:55:00,
2013-09-02 23:00:00,67.2,61.6,29.87,NE,43,2.0,2.0,82,0.00,,,0.00,WUHU216DAVISVP2,2013-09-03 03:00:00,
2013-09-02 23:05:00,67.1,61.5,29.87,NE,53,0.0,8.0,82,0.00,,,0.00,WUHU216DAVISVP2,2013-09-03 03:05:00,
2013-09-02 23:10:00,67.0,61.7,29.87,ENE,75,0.0,8.0,83,0.00,,,0.00,WUHU216DAVISVP2,2013-09-03 03:10:00,
2013-09-02 23:15:00,66.9,61.6,29.87,ENE,75,0.0,4.0,83,0.00,,,0.00,WUHU216DAVISVP2,2013-09-03 03:15:00,
2013-09-02 23:20:00,66.9,61.9,29.87,ENE,74,0.0,2.0,84,0.00,,,0.00,WUHU216DAVISVP2,2013-09-03 03:20:00,
2013-09-02 23:25:00,66.8,61.5,29.87,SSE,148,0.0,2.0,83,0.00,,,0.00,WUHU216DAVISVP2,2013-09-03 03:25:00,
2013-09-02 23:30:00,66.7,61.7,29.88,SSE,148,0.0,2.0,84,0.00,,,0.00,WUHU216DAVISVP2,2013-09-03 03:30:00,
2013-09-02 23:35:00,66.6,61.0,29.88,NE,38,2.0,4.0,82,0.00,,,0.00,WUHU216DAVISVP2,2013-09-03 03:35:00,
2013-09-02 23:40:00,66.5,61.2,29.88,NNE,12,0.0,4.0,83,0.00,,,0.00,WUHU216DAVISVP2,2013-09-03 03:40:00,
2013-09-02 23:45:00,66.5,60.9,29.88,North,11,0.0,4.0,82,0.00,,,0.00,WUHU216DAVISVP2,2013-09-03 03:45:00,
2013-09-02 23:50:00,66.4,60.5,29.88,North,11,0.0,2.0,81,0.00,,,0.00,WUHU216DAVISVP2,2013-09-03 03:50:00,
2013-09-02 23:55:00,66.4,60.5,29.88,North,11,0.0,4.0,81,0.00,,,0.00,WUHU216DAVISVP2,2013-09-03 03:55:00,